Time;durP1;ratioP1;P1;durP2;ratioP2;P2;SDS_P1;SDS_P2;PMS_P1;PMS_P2;Temp;Humidity;BMP_temperature;BMP_pressure;BME280_temperature;BME280_humidity;BME280_pressure;Samples;Min_cycle;Max_cycle;Signal;HPM_P1;HPM_P2
2023/11/22 00:00:12;;;;;;;1.10;0.98;;;;;;;;;;4997531;28;20042;-79
2023/11/22 00:02:38;;;;;;;0.95;0.85;;;;;;;;;;4997809;28;20030;-78
2023/11/22 00:05:05;;;;;;;1.40;1.00;;;;;;;;;;4996651;28;20106;-79
2023/11/22 00:07:31;;;;;;;1.08;0.90;;;;;;;;;;4998874;28;20026;-79
2023/11/22 00:09:58;;;;;;;1.40;1.10;;;;;;;;;;4996997;28;20032;-80
2023/11/22 00:12:24;;;;;;;2.85;1.15;;;;;;;;;;5010812;28;20129;-79
2023/11/22 00:14:51;;;;;;;2.88;1.70;;;;;;;;;;5013089;28;20026;-80
2023/11/22 00:17:17;;;;;;;1.30;1.13;;;;;;;;;;4993620;28;20057;-79
2023/11/22 00:19:44;;;;;;;1.20;0.93;;;;;;;;;;4986273;28;20070;-78
2023/11/22 00:22:14;;;;;;;0.98;0.80;;;;;;;;;;4995654;28;20390;-77
2023/11/22 00:24:41;;;;;;;0.80;0.80;;;;;;;;;;5008064;28;20092;-78
2023/11/22 00:27:07;;;;;;;1.27;1.00;;;;;;;;;;5006620;28;20061;-77
2023/11/22 00:29:34;;;;;;;1.10;0.98;;;;;;;;;;5005513;28;20060;-78
2023/11/22 00:32:00;;;;;;;1.63;1.40;;;;;;;;;;4997893;28;20029;-78
2023/11/22 00:34:26;;;;;;;1.25;0.98;;;;;;;;;;4995921;28;20402;-78
2023/11/22 00:36:53;;;;;;;3.20;1.13;;;;;;;;;;4997448;28;20034;-77
2023/11/22 00:39:19;;;;;;;0.88;0.75;;;;;;;;;;4997293;28;20046;-78
2023/11/22 00:41:46;;;;;;;1.60;1.10;;;;;;;;;;4997489;28;20027;-77
2023/11/22 00:44:12;;;;;;;1.30;1.02;;;;;;;;;;4995763;28;20073;-77
2023/11/22 00:46:38;;;;;;;1.17;1.08;;;;;;;;;;4997004;28;20106;-79
2023/11/22 00:49:04;;;;;;;1.05;0.80;;;;;;;;;;4995825;28;20039;-79
2023/11/22 00:51:31;;;;;;;1.35;1.08;;;;;;;;;;4995542;28;20026;-79
2023/11/22 00:53:58;;;;;;;1.02;0.80;;;;;;;;;;4995588;28;20033;-79
2023/11/22 00:56:25;;;;;;;1.20;0.90;;;;;;;;;;4995528;28;20374;-79
2023/11/22 00:58:53;;;;;;;1.08;0.95;;;;;;;;;;4996849;28;20046;-78
2023/11/22 01:01:19;;;;;;;1.08;0.90;;;;;;;;;;4996375;28;20019;-78
2023/11/22 01:03:46;;;;;;;1.58;1.02;;;;;;;;;;4995234;28;20035;-78
2023/11/22 01:06:12;;;;;;;1.50;1.10;;;;;;;;;;4995574;28;20077;-78
2023/11/22 01:08:39;;;;;;;0.60;0.60;;;;;;;;;;4995471;28;20022;-78
2023/11/22 01:11:08;;;;;;;1.27;1.17;;;;;;;;;;4996431;28;20073;-78
2023/11/22 01:13:40;;;;;;;1.10;0.90;;;;;;;;;;4995340;28;20053;-77
2023/11/22 01:16:10;;;;;;;1.98;0.93;;;;;;;;;;4996131;28;20072;-77
2023/11/22 01:18:36;;;;;;;1.48;1.25;;;;;;;;;;4994946;28;20029;-77
2023/11/22 01:21:03;;;;;;;1.30;0.90;;;;;;;;;;4996569;28;20022;-77
2023/11/22 01:23:30;;;;;;;1.27;1.15;;;;;;;;;;4995041;28;20030;-77
2023/11/22 01:25:56;;;;;;;1.08;0.88;;;;;;;;;;4996040;28;20105;-78
2023/11/22 01:28:22;;;;;;;0.98;0.80;;;;;;;;;;4994923;28;20018;-77
2023/11/22 01:30:49;;;;;;;1.02;0.93;;;;;;;;;;4996741;28;20084;-77
2023/11/22 01:33:15;;;;;;;0.90;0.80;;;;;;;;;;4995956;28;20092;-77
2023/11/22 01:35:41;;;;;;;1.77;1.30;;;;;;;;;;4994808;28;20054;-78
2023/11/22 01:38:08;;;;;;;1.15;1.05;;;;;;;;;;4996006;28;20022;-77
2023/11/22 01:40:34;;;;;;;0.88;0.80;;;;;;;;;;4994291;28;20235;-78
2023/11/22 01:43:05;;;;;;;2.60;1.13;;;;;;;;;;4994531;28;20033;-77
2023/11/22 01:45:32;;;;;;;1.20;0.93;;;;;;;;;;4995719;28;20022;-77
2023/11/22 01:47:58;;;;;;;1.30;1.08;;;;;;;;;;4994618;28;20023;-77
2023/11/22 01:50:24;;;;;;;1.17;0.90;;;;;;;;;;4996013;28;20050;-77
2023/11/22 01:52:50;;;;;;;1.00;0.80;;;;;;;;;;4994333;28;20545;-77
2023/11/22 01:55:16;;;;;;;0.90;0.80;;;;;;;;;;4994503;28;20474;-77
2023/11/22 01:57:42;;;;;;;1.20;1.00;;;;;;;;;;4994362;28;20034;-77
2023/11/22 02:00:14;;;;;;;0.85;0.75;;;;;;;;;;4995588;28;20018;-77
2023/11/22 02:02:40;;;;;;;0.73;0.70;;;;;;;;;;4994825;28;20050;-77
2023/11/22 02:05:06;;;;;;;0.80;0.70;;;;;;;;;;4994182;28;20026;-77
2023/11/22 02:07:32;;;;;;;0.98;0.80;;;;;;;;;;4994356;28;20232;-77
2023/11/22 02:09:59;;;;;;;1.10;0.93;;;;;;;;;;4994854;28;20026;-77
2023/11/22 02:12:25;;;;;;;0.80;0.70;;;;;;;;;;4993869;28;20033;-77
2023/11/22 02:14:51;;;;;;;0.80;0.73;;;;;;;;;;4995639;28;20378;-77
2023/11/22 02:17:17;;;;;;;0.90;0.80;;;;;;;;;;4993990;28;20033;-77
2023/11/22 02:19:44;;;;;;;0.77;0.77;;;;;;;;;;4994305;28;20085;-77
2023/11/22 02:22:10;;;;;;;1.02;0.90;;;;;;;;;;4995043;28;20050;-77
2023/11/22 02:24:37;;;;;;;0.80;0.70;;;;;;;;;;4994867;28;20359;-77
2023/11/22 02:27:03;;;;;;;0.88;0.80;;;;;;;;;;4993924;28;20044;-77
2023/11/22 02:29:29;;;;;;;0.80;0.77;;;;;;;;;;4993806;28;20462;-77
2023/11/22 02:31:56;;;;;;;1.02;0.80;;;;;;;;;;4994906;28;20026;-77
2023/11/22 02:34:22;;;;;;;0.80;0.70;;;;;;;;;;4994559;28;20022;-77
2023/11/22 02:36:48;;;;;;;0.77;0.77;;;;;;;;;;4993816;28;20026;-77
2023/11/22 02:39:16;;;;;;;0.88;0.80;;;;;;;;;;4993808;28;20113;-77
2023/11/22 02:41:42;;;;;;;1.00;0.80;;;;;;;;;;4993514;28;20033;-77
2023/11/22 02:44:08;;;;;;;0.70;0.70;;;;;;;;;;4994441;28;20049;-78
2023/11/22 02:46:34;;;;;;;1.00;0.90;;;;;;;;;;4994890;28;20058;-77
2023/11/22 02:49:00;;;;;;;0.82;0.80;;;;;;;;;;4993807;28;20031;-77
2023/11/22 02:51:27;;;;;;;1.00;0.80;;;;;;;;;;4994811;28;20018;-77
2023/11/22 02:53:54;;;;;;;0.70;0.65;;;;;;;;;;4993375;28;20041;-77
2023/11/22 02:56:21;;;;;;;1.88;0.90;;;;;;;;;;4993609;28;20025;-77
2023/11/22 02:58:47;;;;;;;0.68;0.68;;;;;;;;;;4994063;28;20023;-77
2023/11/22 03:01:13;;;;;;;0.70;0.70;;;;;;;;;;4993395;28;20034;-78
2023/11/22 03:03:39;;;;;;;0.60;0.60;;;;;;;;;;4993436;28;20027;-78
2023/11/22 03:06:06;;;;;;;0.70;0.70;;;;;;;;;;4993003;28;20030;-78
2023/11/22 03:08:33;;;;;;;2.95;1.00;;;;;;;;;;4993071;28;20034;-78
2023/11/22 03:10:59;;;;;;;0.82;0.77;;;;;;;;;;4994460;28;20022;-78
2023/11/22 03:13:25;;;;;;;0.85;0.80;;;;;;;;;;4994196;28;20037;-78
2023/11/22 03:15:51;;;;;;;0.95;0.80;;;;;;;;;;4993244;28;20116;-78
2023/11/22 03:18:18;;;;;;;0.70;0.70;;;;;;;;;;4994333;28;20145;-78
2023/11/22 03:20:44;;;;;;;0.70;0.70;;;;;;;;;;4994434;28;20022;-78
2023/11/22 03:23:10;;;;;;;0.70;0.70;;;;;;;;;;4993717;28;20053;-78
2023/11/22 03:25:37;;;;;;;0.68;0.63;;;;;;;;;;4992963;28;20026;-78
2023/11/22 03:28:03;;;;;;;0.77;0.70;;;;;;;;;;4994786;28;20518;-78
2023/11/22 03:30:29;;;;;;;0.80;0.70;;;;;;;;;;4994235;28;20018;-79
2023/11/22 03:32:55;;;;;;;0.77;0.75;;;;;;;;;;4994610;28;20045;-78
2023/11/22 03:35:22;;;;;;;0.70;0.70;;;;;;;;;;4993049;28;20034;-79
2023/11/22 03:37:48;;;;;;;0.73;0.70;;;;;;;;;;4992836;28;20026;-78
2023/11/22 03:40:14;;;;;;;0.77;0.70;;;;;;;;;;4993271;28;20059;-78
2023/11/22 03:42:41;;;;;;;0.80;0.80;;;;;;;;;;4992826;28;20026;-78
2023/11/22 03:45:07;;;;;;;0.80;0.77;;;;;;;;;;4992769;28;20036;-78
2023/11/22 03:47:33;;;;;;;0.77;0.70;;;;;;;;;;4992984;28;20458;-78
2023/11/22 03:50:00;;;;;;;0.70;0.70;;;;;;;;;;4992824;28;20065;-78
2023/11/22 03:52:29;;;;;;;0.88;0.80;;;;;;;;;;4992694;28;20390;-78
2023/11/22 03:54:57;;;;;;;0.70;0.70;;;;;;;;;;4993232;28;20027;-78
2023/11/22 03:57:23;;;;;;;0.80;0.75;;;;;;;;;;4992882;28;20113;-78
2023/11/22 03:59:49;;;;;;;0.70;0.70;;;;;;;;;;4993798;28;20102;-78
2023/11/22 04:02:15;;;;;;;0.80;0.70;;;;;;;;;;4994166;28;20065;-78
2023/11/22 04:04:42;;;;;;;0.73;0.70;;;;;;;;;;4994132;28;20102;-78
2023/11/22 04:07:08;;;;;;;0.85;0.80;;;;;;;;;;4992588;28;20054;-79
2023/11/22 04:09:34;;;;;;;0.80;0.80;;;;;;;;;;4997213;28;20026;-79
2023/11/22 04:12:00;;;;;;;0.90;0.80;;;;;;;;;;4997999;28;20030;-79
2023/11/22 04:14:29;;;;;;;1.13;1.00;;;;;;;;;;4996145;28;20537;-79
2023/11/22 04:16:55;;;;;;;0.88;0.77;;;;;;;;;;4997571;28;20064;-78
2023/11/22 04:19:21;;;;;;;0.80;0.70;;;;;;;;;;4996175;28;20058;-79
2023/11/22 04:21:48;;;;;;;0.80;0.80;;;;;;;;;;4997676;28;20479;-79
2023/11/22 04:24:14;;;;;;;1.10;1.00;;;;;;;;;;4997358;28;20092;-79
2023/11/22 04:26:40;;;;;;;1.00;0.90;;;;;;;;;;4997151;28;20501;-78
2023/11/22 04:29:06;;;;;;;0.80;0.70;;;;;;;;;;4997558;28;20030;-78
2023/11/22 04:31:32;;;;;;;0.80;0.80;;;;;;;;;;4996108;28;20113;-78
2023/11/22 04:34:00;;;;;;;0.90;0.70;;;;;;;;;;4997724;28;20032;-78
2023/11/22 04:36:26;;;;;;;0.90;0.80;;;;;;;;;;4996166;28;20378;-78
2023/11/22 04:38:52;;;;;;;0.70;0.70;;;;;;;;;;4997452;28;20106;-78
2023/11/22 04:41:18;;;;;;;0.75;0.70;;;;;;;;;;4995616;28;20074;-78
2023/11/22 04:43:47;;;;;;;0.90;0.77;;;;;;;;;;4997371;28;20040;-78
2023/11/22 04:46:13;;;;;;;0.80;0.70;;;;;;;;;;4995868;28;20033;-78
2023/11/22 04:48:40;;;;;;;1.00;0.80;;;;;;;;;;4996946;28;20046;-78
2023/11/22 04:51:06;;;;;;;0.98;0.85;;;;;;;;;;4996968;28;20022;-78
2023/11/22 04:53:33;;;;;;;0.95;0.80;;;;;;;;;;4996975;28;20026;-78
2023/11/22 04:55:59;;;;;;;0.93;0.85;;;;;;;;;;4996747;28;20061;-76
2023/11/22 04:58:25;;;;;;;0.90;0.80;;;;;;;;;;4996053;28;20026;-77
2023/11/22 05:00:51;;;;;;;0.90;0.80;;;;;;;;;;4995475;28;20023;-77
2023/11/22 05:03:18;;;;;;;1.10;0.80;;;;;;;;;;4995274;28;20449;-77
2023/11/22 05:05:44;;;;;;;1.05;0.90;;;;;;;;;;4997061;28;20023;-77
2023/11/22 05:08:10;;;;;;;2.05;1.23;;;;;;;;;;4997299;28;20064;-77
2023/11/22 05:10:37;;;;;;;1.05;0.80;;;;;;;;;;4996936;28;20113;-76
2023/11/22 05:13:04;;;;;;;0.95;0.85;;;;;;;;;;4996542;28;20041;-77
2023/11/22 05:15:30;;;;;;;1.10;0.95;;;;;;;;;;4996283;28;20104;-77
2023/11/22 05:17:56;;;;;;;1.17;0.90;;;;;;;;;;4995304;28;20030;-78
2023/11/22 05:20:22;;;;;;;0.63;0.63;;;;;;;;;;4994137;28;20027;-77
2023/11/22 05:22:48;;;;;;;2.40;1.23;;;;;;;;;;4995512;28;20034;-77
2023/11/22 05:25:14;;;;;;;1.23;1.00;;;;;;;;;;4996421;28;20034;-78
2023/11/22 05:27:40;;;;;;;1.38;1.10;;;;;;;;;;4994989;28;20027;-78
2023/11/22 05:30:07;;;;;;;2.20;1.08;;;;;;;;;;4994546;28;20020;-77
2023/11/22 05:32:33;;;;;;;0.82;0.80;;;;;;;;;;4996260;28;20077;-77
2023/11/22 05:34:59;;;;;;;1.00;0.80;;;;;;;;;;4995918;28;20023;-77
2023/11/22 05:37:25;;;;;;;0.70;0.70;;;;;;;;;;4996180;28;20101;-77
2023/11/22 05:39:51;;;;;;;0.90;0.70;;;;;;;;;;4996102;28;20050;-77
2023/11/22 05:42:18;;;;;;;1.08;0.88;;;;;;;;;;4995734;28;20451;-77
2023/11/22 05:44:44;;;;;;;0.82;0.73;;;;;;;;;;4995861;28;20459;-77
2023/11/22 05:47:10;;;;;;;1.00;0.90;;;;;;;;;;4994606;28;20037;-77
2023/11/22 05:49:36;;;;;;;0.98;0.80;;;;;;;;;;4995207;28;20419;-77
2023/11/22 05:52:04;;;;;;;1.25;0.90;;;;;;;;;;4995673;28;20033;-77
2023/11/22 05:54:30;;;;;;;0.90;0.70;;;;;;;;;;4994525;28;20111;-77
2023/11/22 05:56:56;;;;;;;1.00;0.80;;;;;;;;;;4995971;28;20024;-77
2023/11/22 05:59:23;;;;;;;0.90;0.80;;;;;;;;;;4995284;28;20018;-77
2023/11/22 06:01:50;;;;;;;0.70;0.70;;;;;;;;;;4994267;28;20022;-77
2023/11/22 06:04:16;;;;;;;0.90;0.80;;;;;;;;;;4994043;28;20125;-77
2023/11/22 06:06:42;;;;;;;1.05;0.88;;;;;;;;;;4995594;28;20030;-77
2023/11/22 06:09:10;;;;;;;0.85;0.70;;;;;;;;;;4994214;28;20053;-77
2023/11/22 06:11:36;;;;;;;0.80;0.77;;;;;;;;;;4993982;28;20375;-77
2023/11/22 06:14:02;;;;;;;0.88;0.80;;;;;;;;;;4994205;28;20026;-77
2023/11/22 06:16:28;;;;;;;0.95;0.88;;;;;;;;;;4995461;28;20081;-77
2023/11/22 06:18:55;;;;;;;1.00;0.80;;;;;;;;;;4995055;28;20422;-77
2023/11/22 06:21:24;;;;;;;0.70;0.70;;;;;;;;;;4995422;28;20433;-77
2023/11/22 06:23:50;;;;;;;0.90;0.80;;;;;;;;;;4994119;28;20053;-77
2023/11/22 06:26:16;;;;;;;1.00;0.90;;;;;;;;;;4995217;28;20034;-77
2023/11/22 06:28:44;;;;;;;0.70;0.70;;;;;;;;;;4995373;28;20018;-77
2023/11/22 06:31:10;;;;;;;0.70;0.70;;;;;;;;;;4993849;28;20023;-77
2023/11/22 06:33:36;;;;;;;1.10;0.90;;;;;;;;;;4993689;28;20030;-78
2023/11/22 06:36:03;;;;;;;1.00;0.80;;;;;;;;;;4995354;28;20150;-78
2023/11/22 06:38:29;;;;;;;1.20;0.90;;;;;;;;;;4994674;28;20023;-78
2023/11/22 06:40:55;;;;;;;1.10;0.98;;;;;;;;;;4993362;28;20050;-78
2023/11/22 06:43:22;;;;;;;1.33;1.00;;;;;;;;;;4993591;28;20026;-78
2023/11/22 06:45:48;;;;;;;1.17;0.90;;;;;;;;;;4995254;28;20034;-78
2023/11/22 06:48:14;;;;;;;1.10;0.90;;;;;;;;;;4993544;28;20025;-78
2023/11/22 06:50:42;;;;;;;1.13;0.85;;;;;;;;;;4993521;28;20036;-78
2023/11/22 06:53:08;;;;;;;0.80;0.77;;;;;;;;;;4994851;28;20478;-78
2023/11/22 06:55:34;;;;;;;1.30;1.08;;;;;;;;;;4994343;28;20035;-78
2023/11/22 06:58:00;;;;;;;1.38;1.08;;;;;;;;;;4993345;28;20027;-78
2023/11/22 07:00:27;;;;;;;1.88;1.50;;;;;;;;;;4993305;28;20032;-78
2023/11/22 07:02:53;;;;;;;0.80;0.73;;;;;;;;;;4994643;28;20061;-78
2023/11/22 07:05:19;;;;;;;1.75;1.10;;;;;;;;;;4993377;28;20031;-78
2023/11/22 07:07:46;;;;;;;1.10;0.95;;;;;;;;;;4993273;28;20125;-78
2023/11/22 07:10:13;;;;;;;1.33;1.20;;;;;;;;;;4994741;28;20022;-78
2023/11/22 07:12:40;;;;;;;3.42;1.23;;;;;;;;;;4993288;28;20081;-78
2023/11/22 07:15:06;;;;;;;1.88;1.50;;;;;;;;;;4993219;28;20470;-78
2023/11/22 07:17:33;;;;;;;1.02;0.95;;;;;;;;;;4995190;28;20042;-78
2023/11/22 07:20:00;;;;;;;1.38;1.27;;;;;;;;;;4993290;28;20088;-78
2023/11/22 07:22:27;;;;;;;2.08;1.48;;;;;;;;;;4992995;28;20150;-78
2023/11/22 07:25:01;;;;;;;1.40;1.20;;;;;;;;;;4993105;28;20406;-78
2023/11/22 07:27:27;;;;;;;1.08;0.90;;;;;;;;;;4994591;28;20019;-78
2023/11/22 07:29:53;;;;;;;1.67;1.17;;;;;;;;;;4993149;28;20030;-78
2023/11/22 07:32:22;;;;;;;3.17;1.20;;;;;;;;;;4994298;28;20027;-78
2023/11/22 07:34:48;;;;;;;1.17;0.88;;;;;;;;;;4993956;28;20038;-78
2023/11/22 07:37:16;;;;;;;1.33;1.00;;;;;;;;;;4993009;28;20104;-78
2023/11/22 07:39:43;;;;;;;0.80;0.73;;;;;;;;;;4992760;28;20113;-78
2023/11/22 07:42:09;;;;;;;0.90;0.80;;;;;;;;;;4992931;28;20029;-79
2023/11/22 07:44:37;;;;;;;1.05;0.95;;;;;;;;;;4998245;28;20050;-78
2023/11/22 07:47:07;;;;;;;1.90;1.38;;;;;;;;;;4996877;28;20113;-78
2023/11/22 07:49:37;;;;;;;0.90;0.80;;;;;;;;;;4998568;28;20149;-78
2023/11/22 07:52:04;;;;;;;1.10;1.00;;;;;;;;;;4996957;28;20377;-78
2023/11/22 07:54:31;;;;;;;1.17;0.90;;;;;;;;;;4997804;28;20106;-78
2023/11/22 07:56:57;;;;;;;0.85;0.80;;;;;;;;;;4997738;28;20019;-78
2023/11/22 07:59:23;;;;;;;2.00;1.60;;;;;;;;;;4998316;28;20031;-78
2023/11/22 08:01:49;;;;;;;0.90;0.80;;;;;;;;;;4996828;28;20026;-78
2023/11/22 08:04:19;;;;;;;0.88;0.80;;;;;;;;;;4996373;28;20389;-78
2023/11/22 08:06:45;;;;;;;1.60;1.45;;;;;;;;;;4996576;28;20030;-78
2023/11/22 08:09:11;;;;;;;0.80;0.73;;;;;;;;;;4996597;28;20033;-78
2023/11/22 08:11:38;;;;;;;1.15;0.90;;;;;;;;;;4996444;28;20029;-78
2023/11/22 08:14:05;;;;;;;0.75;0.70;;;;;;;;;;4997284;28;20539;-78
2023/11/22 08:16:32;;;;;;;1.45;0.98;;;;;;;;;;4997897;28;20375;-78
2023/11/22 08:18:58;;;;;;;1.20;0.90;;;;;;;;;;4997486;28;20029;-78
2023/11/22 08:21:24;;;;;;;0.63;0.63;;;;;;;;;;4996401;28;20359;-79
2023/11/22 08:23:53;;;;;;;1.10;0.80;;;;;;;;;;4997791;28;20033;-78
2023/11/22 08:26:19;;;;;;;1.30;0.90;;;;;;;;;;4992599;28;20060;-77
2023/11/22 08:28:45;;;;;;;2.08;1.25;;;;;;;;;;4997340;28;20026;-80
2023/11/22 08:31:11;;;;;;;1.63;1.00;;;;;;;;;;4995492;28;20105;-78
2023/11/22 08:33:38;;;;;;;2.67;1.17;;;;;;;;;;4996068;28;20034;-78
2023/11/22 08:36:05;;;;;;;1.10;1.00;;;;;;;;;;4994735;28;20029;-80
2023/11/22 08:38:33;;;;;;;1.08;0.90;;;;;;;;;;4995671;28;20114;-80
2023/11/22 08:41:02;;;;;;;1.92;1.60;;;;;;;;;;4991225;28;20046;-80
2023/11/22 08:43:28;;;;;;;1.40;1.25;;;;;;;;;;4996910;28;20030;-81
2023/11/22 08:45:54;;;;;;;1.15;0.80;;;;;;;;;;4995946;28;20035;-80
2023/11/22 08:48:20;;;;;;;0.70;0.70;;;;;;;;;;4997994;28;20026;-81
2023/11/22 08:50:48;;;;;;;1.17;0.80;;;;;;;;;;4996751;28;20069;-79
2023/11/22 08:53:15;;;;;;;0.82;0.77;;;;;;;;;;4997390;28;20030;-79
2023/11/22 08:55:43;;;;;;;2.20;1.48;;;;;;;;;;4994144;28;20026;-78
2023/11/22 08:58:10;;;;;;;0.90;0.80;;;;;;;;;;4995700;28;20425;-79
2023/11/22 09:00:36;;;;;;;1.20;0.90;;;;;;;;;;4996922;28;20485;-79
2023/11/22 09:03:03;;;;;;;1.55;1.38;;;;;;;;;;4995559;28;20033;-79
2023/11/22 09:05:29;;;;;;;1.73;1.00;;;;;;;;;;4996337;28;20026;-79
2023/11/22 09:07:55;;;;;;;2.30;1.13;;;;;;;;;;4995411;28;20029;-79
2023/11/22 09:10:21;;;;;;;2.38;1.27;;;;;;;;;;4997770;28;20034;-79
2023/11/22 09:12:49;;;;;;;1.23;0.95;;;;;;;;;;4996576;28;20033;-79
2023/11/22 09:15:17;;;;;;;1.08;0.85;;;;;;;;;;4994812;28;20022;-80
2023/11/22 09:17:45;;;;;;;1.33;1.13;;;;;;;;;;4995404;28;20022;-79
2023/11/22 09:20:11;;;;;;;1.48;1.10;;;;;;;;;;4995162;28;20028;-79
2023/11/22 09:22:45;;;;;;;2.63;1.40;;;;;;;;;;4995109;28;20038;-78
2023/11/22 09:25:12;;;;;;;1.42;1.10;;;;;;;;;;4994809;28;20022;-81
2023/11/22 09:27:39;;;;;;;1.33;1.00;;;;;;;;;;4994908;28;20029;-81
2023/11/22 09:30:06;;;;;;;1.10;0.82;;;;;;;;;;4994950;28;20493;-80
2023/11/22 09:32:32;;;;;;;2.20;1.20;;;;;;;;;;4997195;28;20026;-81
2023/11/22 09:34:58;;;;;;;1.17;0.90;;;;;;;;;;4997921;28;20030;-80
2023/11/22 09:37:25;;;;;;;0.90;0.80;;;;;;;;;;5000877;28;20022;-80
2023/11/22 09:39:51;;;;;;;1.15;1.05;;;;;;;;;;4997367;28;20153;-80
2023/11/22 09:42:18;;;;;;;1.00;0.80;;;;;;;;;;4999870;28;20101;-80
2023/11/22 09:44:44;;;;;;;0.75;0.70;;;;;;;;;;5001279;28;20061;-80
2023/11/22 09:47:10;;;;;;;1.00;0.80;;;;;;;;;;5011012;28;20022;-78
2023/11/22 09:49:40;;;;;;;1.15;1.00;;;;;;;;;;5017555;28;20018;-77
2023/11/22 09:52:10;;;;;;;0.50;0.50;;;;;;;;;;5016277;28;20023;-80
2023/11/22 09:54:40;;;;;;;1.50;0.80;;;;;;;;;;5010987;28;20078;-78
2023/11/22 09:57:10;;;;;;;1.17;1.08;;;;;;;;;;5009797;28;20030;-78
2023/11/22 09:59:37;;;;;;;0.90;0.80;;;;;;;;;;5010874;28;20027;-80
2023/11/22 10:02:05;;;;;;;0.95;0.80;;;;;;;;;;5004424;28;20378;-79
2023/11/22 10:04:31;;;;;;;1.13;1.02;;;;;;;;;;4998832;28;20023;-79
2023/11/22 10:07:01;;;;;;;1.52;1.15;;;;;;;;;;4997380;28;20485;-79
2023/11/22 10:09:29;;;;;;;1.33;1.00;;;;;;;;;;4997689;28;20393;-77
2023/11/22 10:11:59;;;;;;;1.20;0.80;;;;;;;;;;5000763;28;20022;-76
2023/11/22 10:14:25;;;;;;;1.02;0.88;;;;;;;;;;4997133;28;20046;-79
2023/11/22 10:16:59;;;;;;;2.33;1.15;;;;;;;;;;4995140;28;20110;-80
2023/11/22 10:19:25;;;;;;;1.08;0.85;;;;;;;;;;4993619;28;20026;-80
2023/11/22 10:22:03;;;;;;;1.20;1.08;;;;;;;;;;4994174;28;20478;-80
2023/11/22 10:24:33;;;;;;;1.50;1.27;;;;;;;;;;4993694;28;20026;-79
2023/11/22 10:26:59;;;;;;;0.98;0.90;;;;;;;;;;4993527;28;20030;-79
2023/11/22 10:29:26;;;;;;;1.17;1.00;;;;;;;;;;4994827;28;20065;-79
2023/11/22 10:31:52;;;;;;;1.90;1.60;;;;;;;;;;4993676;28;20026;-79
2023/11/22 10:34:25;;;;;;;1.27;1.05;;;;;;;;;;4993528;28;20378;-80
2023/11/22 10:36:53;;;;;;;3.22;2.22;;;;;;;;;;4993506;28;20030;-79
2023/11/22 10:39:23;;;;;;;1.20;0.90;;;;;;;;;;4992888;28;20109;-78
2023/11/22 10:41:51;;;;;;;1.05;0.80;;;;;;;;;;4993286;28;20363;-77
2023/11/22 10:44:20;;;;;;;1.40;1.13;;;;;;;;;;4994384;28;20022;-77
2023/11/22 10:46:48;;;;;;;1.08;0.93;;;;;;;;;;4993094;28;20494;-78
2023/11/22 10:49:14;;;;;;;0.70;0.70;;;;;;;;;;4994027;28;20014;-78
2023/11/22 10:51:41;;;;;;;0.90;0.82;;;;;;;;;;4994145;28;20081;-77
2023/11/22 10:54:09;;;;;;;0.88;0.75;;;;;;;;;;4993202;28;20030;-77
2023/11/22 10:56:42;;;;;;;0.98;0.88;;;;;;;;;;4993056;28;20490;-77
2023/11/22 10:59:14;;;;;;;1.05;0.85;;;;;;;;;;4992415;28;20451;-77
2023/11/22 11:01:45;;;;;;;1.53;1.27;;;;;;;;;;4992783;28;20097;-77
2023/11/22 11:04:40;;;;;;;0.75;0.70;;;;;;;;;;4994288;28;20283;-77
2023/11/22 11:07:07;;;;;;;1.38;1.05;;;;;;;;;;4978914;28;20566;-77
2023/11/22 11:09:34;;;;;;;1.00;0.90;;;;;;;;;;4975387;28;20026;-77
2023/11/22 11:12:02;;;;;;;0.98;0.80;;;;;;;;;;4991900;28;20043;-77
2023/11/22 11:14:28;;;;;;;1.65;1.38;;;;;;;;;;4991729;28;20478;-77
2023/11/22 11:16:58;;;;;;;0.80;0.70;;;;;;;;;;4975379;28;20038;-77
2023/11/22 11:19:25;;;;;;;1.85;1.38;;;;;;;;;;4975323;28;20477;-78
2023/11/22 11:21:51;;;;;;;0.85;0.77;;;;;;;;;;4992128;28;20027;-78
2023/11/22 11:24:18;;;;;;;1.17;0.93;;;;;;;;;;4975373;28;20042;-77
2023/11/22 11:26:52;;;;;;;0.73;0.70;;;;;;;;;;4992204;28;20062;-77
2023/11/22 11:29:34;;;;;;;1.60;1.33;;;;;;;;;;4975605;28;20037;-78
2023/11/22 11:32:02;;;;;;;1.10;0.90;;;;;;;;;;4975658;28;20023;-78
2023/11/22 11:34:29;;;;;;;0.70;0.70;;;;;;;;;;4975400;28;20023;-77
2023/11/22 11:36:55;;;;;;;0.82;0.70;;;;;;;;;;4975401;28;20037;-77
2023/11/22 11:39:29;;;;;;;1.60;1.00;;;;;;;;;;4991335;28;20046;-77
2023/11/22 11:42:07;;;;;;;1.48;1.02;;;;;;;;;;4975147;28;20034;-77
2023/11/22 11:44:34;;;;;;;0.85;0.75;;;;;;;;;;4991456;28;20041;-77
2023/11/22 11:47:09;;;;;;;0.73;0.73;;;;;;;;;;4993886;28;20066;-77
2023/11/22 11:49:38;;;;;;;1.08;0.98;;;;;;;;;;4992976;28;20549;-77
2023/11/22 11:52:04;;;;;;;1.02;0.90;;;;;;;;;;4992865;28;20485;-77
2023/11/22 11:54:30;;;;;;;0.70;0.70;;;;;;;;;;4992526;28;20023;-78
2023/11/22 11:57:01;;;;;;;0.90;0.75;;;;;;;;;;4993029;28;20110;-78
2023/11/22 11:59:27;;;;;;;1.65;1.23;;;;;;;;;;4992599;28;20097;-79
2023/11/22 12:01:55;;;;;;;1.00;0.80;;;;;;;;;;4995308;28;20029;-78
2023/11/22 12:04:23;;;;;;;1.45;1.00;;;;;;;;;;4992580;28;20117;-79
2023/11/22 12:06:53;;;;;;;1.40;1.00;;;;;;;;;;4992539;28;20031;-78
2023/11/22 12:09:26;;;;;;;1.00;0.90;;;;;;;;;;4992223;28;20034;-78
2023/11/22 12:11:53;;;;;;;;;;;;;;;;;;4994302;28;20097;-77
2023/11/22 12:14:20;;;;;;;0.80;0.77;;;;;;;;;;4992535;28;19910;-77
2023/11/22 12:16:48;;;;;;;0.80;0.80;;;;;;;;;;4991567;28;20037;-77
2023/11/22 12:19:23;;;;;;;1.10;0.90;;;;;;;;;;4993435;28;20015;-77
2023/11/22 12:21:50;;;;;;;1.13;1.00;;;;;;;;;;4992442;28;20037;-77
2023/11/22 12:24:16;;;;;;;0.82;0.77;;;;;;;;;;4992036;28;20493;-77
2023/11/22 12:26:45;;;;;;;1.25;1.00;;;;;;;;;;4993193;28;20483;-78
2023/11/22 12:29:14;;;;;;;0.80;0.80;;;;;;;;;;4993260;28;20208;-78
2023/11/22 12:31:50;;;;;;;0.98;0.82;;;;;;;;;;4996168;28;20402;-78
2023/11/22 12:34:16;;;;;;;1.52;1.00;;;;;;;;;;4997110;28;20018;-77
2023/11/22 12:36:43;;;;;;;0.80;0.80;;;;;;;;;;4995648;28;20138;-77
2023/11/22 12:39:20;;;;;;;1.00;0.80;;;;;;;;;;4995472;28;20114;-80
2023/11/22 12:41:53;;;;;;;2.17;1.35;;;;;;;;;;4995628;28;20032;-77
2023/11/22 12:44:19;;;;;;;0.70;0.70;;;;;;;;;;4995317;28;20117;-77
2023/11/22 12:47:10;;;;;;;0.70;0.70;;;;;;;;;;4995466;28;20030;-79
2023/11/22 12:49:45;;;;;;;1.40;1.00;;;;;;;;;;4995504;28;20029;-79
2023/11/22 12:52:12;;;;;;;0.90;0.80;;;;;;;;;;4995367;28;20532;-78
2023/11/22 12:54:38;;;;;;;0.88;0.77;;;;;;;;;;4995087;28;20117;-79
2023/11/22 12:57:12;;;;;;;0.93;0.80;;;;;;;;;;4994306;28;20027;-80
2023/11/22 12:59:39;;;;;;;1.10;0.90;;;;;;;;;;4993562;28;20082;-78
2023/11/22 13:02:06;;;;;;;0.80;0.73;;;;;;;;;;4994322;28;20037;-79
2023/11/22 13:04:33;;;;;;;1.10;0.90;;;;;;;;;;4992429;28;20031;-78
2023/11/22 13:06:59;;;;;;;0.98;0.80;;;;;;;;;;4996026;28;20026;-78
2023/11/22 13:09:26;;;;;;;1.15;0.95;;;;;;;;;;4994133;28;20054;-79
2023/11/22 13:11:53;;;;;;;1.10;1.00;;;;;;;;;;4995826;28;20019;-79
2023/11/22 13:14:19;;;;;;;1.10;0.90;;;;;;;;;;4994706;28;20037;-79
2023/11/22 13:16:45;;;;;;;1.00;0.90;;;;;;;;;;4995585;28;20296;-80
2023/11/22 13:19:11;;;;;;;1.08;0.85;;;;;;;;;;4994329;28;20022;-79
2023/11/22 13:21:37;;;;;;;1.40;1.10;;;;;;;;;;4993065;28;20023;-79
2023/11/22 13:24:06;;;;;;;1.75;1.20;;;;;;;;;;4991433;28;20026;-79
2023/11/22 13:26:34;;;;;;;1.52;1.23;;;;;;;;;;4975642;28;20717;-80
2023/11/22 13:29:00;;;;;;;1.10;0.85;;;;;;;;;;4974623;28;20046;-79
2023/11/22 13:31:26;;;;;;;1.10;0.90;;;;;;;;;;4975479;28;20023;-80
2023/11/22 13:33:52;;;;;;;0.85;0.73;;;;;;;;;;4983197;28;20030;-78
2023/11/22 13:36:19;;;;;;;0.90;0.73;;;;;;;;;;4995139;28;20041;-79
2023/11/22 13:38:45;;;;;;;1.77;1.02;;;;;;;;;;4994611;28;20466;-79
2023/11/22 13:41:11;;;;;;;1.20;0.93;;;;;;;;;;4991577;28;20085;-78
2023/11/22 13:43:37;;;;;;;0.90;0.75;;;;;;;;;;4994277;28;20027;-80
2023/11/22 13:46:04;;;;;;;1.05;0.90;;;;;;;;;;4994920;28;20073;-80
2023/11/22 13:48:32;;;;;;;0.80;0.73;;;;;;;;;;4993660;28;20022;-79
2023/11/22 13:50:59;;;;;;;1.25;0.93;;;;;;;;;;4993841;28;20054;-77
2023/11/22 13:53:29;;;;;;;1.90;0.95;;;;;;;;;;4993737;28;20481;-78
2023/11/22 13:55:55;;;;;;;1.35;1.15;;;;;;;;;;4993935;28;20034;-77
2023/11/22 13:58:21;;;;;;;1.10;0.90;;;;;;;;;;4995005;28;20026;-78
2023/11/22 14:00:49;;;;;;;1.10;0.90;;;;;;;;;;4993323;28;20031;-77
2023/11/22 14:03:16;;;;;;;1.20;1.00;;;;;;;;;;5006057;28;20113;-78
2023/11/22 14:05:42;;;;;;;0.98;0.82;;;;;;;;;;4999208;28;20030;-78
2023/11/22 14:08:09;;;;;;;1.40;0.93;;;;;;;;;;5009631;28;20030;-78
2023/11/22 14:10:35;;;;;;;0.70;0.65;;;;;;;;;;5000296;28;20362;-78
2023/11/22 14:13:02;;;;;;;0.70;0.70;;;;;;;;;;5004680;28;20026;-78
2023/11/22 14:15:28;;;;;;;1.27;0.95;;;;;;;;;;5005521;28;20017;-78
2023/11/22 14:17:55;;;;;;;2.28;2.08;;;;;;;;;;4997463;28;20386;-78
2023/11/22 14:20:21;;;;;;;2.75;1.52;;;;;;;;;;5009641;28;20022;-78
2023/11/22 14:22:48;;;;;;;0.70;0.70;;;;;;;;;;4999760;28;20026;-79
2023/11/22 14:25:15;;;;;;;1.90;1.73;;;;;;;;;;5002092;28;20022;-79
2023/11/22 14:27:45;;;;;;;0.60;0.60;;;;;;;;;;4994981;28;20026;-79
2023/11/22 14:30:16;;;;;;;3.10;1.10;;;;;;;;;;5010694;28;20026;-80
2023/11/22 14:32:43;;;;;;;1.17;1.00;;;;;;;;;;4999218;28;20034;-79
2023/11/22 14:35:10;;;;;;;1.23;1.05;;;;;;;;;;5004440;28;20061;-78
2023/11/22 14:37:39;;;;;;;1.23;0.90;;;;;;;;;;5007674;28;20053;-79
2023/11/22 14:40:13;;;;;;;1.30;0.90;;;;;;;;;;4996274;28;20441;-78
2023/11/22 14:42:40;;;;;;;1.10;0.90;;;;;;;;;;5007391;28;20494;-80